sensor_id;sensor_type;location;lat;lon;timestamp;P1;durP1;ratioP1;P2;durP2;ratioP2
74945;SDS011;63509;45.250;38.102;2023-12-20T00:01:49;17.52;;;8.00;;
74945;SDS011;63509;45.250;38.102;2023-12-20T00:04:15;20.45;;;8.38;;
74945;SDS011;63509;45.250;38.102;2023-12-20T00:06:41;17.67;;;9.15;;
74945;SDS011;63509;45.250;38.102;2023-12-20T00:09:07;41.95;;;6.70;;
74945;SDS011;63509;45.250;38.102;2023-12-20T00:11:33;14.73;;;8.80;;
74945;SDS011;63509;45.250;38.102;2023-12-20T00:13:59;17.77;;;8.32;;
74945;SDS011;63509;45.250;38.102;2023-12-20T00:16:25;16.70;;;7.72;;
74945;SDS011;63509;45.250;38.102;2023-12-20T00:18:52;14.50;;;6.97;;
74945;SDS011;63509;45.250;38.102;2023-12-20T00:21:18;16.60;;;8.18;;
74945;SDS011;63509;45.250;38.102;2023-12-20T00:23:44;17.38;;;7.28;;
74945;SDS011;63509;45.250;38.102;2023-12-20T00:26:10;14.45;;;7.35;;
74945;SDS011;63509;45.250;38.102;2023-12-20T00:28:36;13.48;;;6.68;;
74945;SDS011;63509;45.250;38.102;2023-12-20T00:31:05;15.70;;;8.05;;
74945;SDS011;63509;45.250;38.102;2023-12-20T00:33:31;23.50;;;9.73;;
74945;SDS011;63509;45.250;38.102;2023-12-20T00:35:57;17.38;;;7.80;;
74945;SDS011;63509;45.250;38.102;2023-12-20T00:38:23;16.55;;;8.43;;
74945;SDS011;63509;45.250;38.102;2023-12-20T00:40:49;16.10;;;8.38;;
74945;SDS011;63509;45.250;38.102;2023-12-20T00:43:15;16.95;;;8.27;;
74945;SDS011;63509;45.250;38.102;2023-12-20T00:45:41;14.20;;;7.53;;
74945;SDS011;63509;45.250;38.102;2023-12-20T00:48:07;11.30;;;6.30;;
74945;SDS011;63509;45.250;38.102;2023-12-20T00:50:33;13.25;;;6.78;;
74945;SDS011;63509;45.250;38.102;2023-12-20T00:52:59;16.38;;;9.00;;
74945;SDS011;63509;45.250;38.102;2023-12-20T00:55:25;13.70;;;7.05;;
74945;SDS011;63509;45.250;38.102;2023-12-20T00:57:51;17.02;;;8.23;;
74945;SDS011;63509;45.250;38.102;2023-12-20T01:00:18;18.20;;;8.32;;
74945;SDS011;63509;45.250;38.102;2023-12-20T01:02:45;15.68;;;7.28;;
74945;SDS011;63509;45.250;38.102;2023-12-20T01:05:14;15.00;;;8.65;;
74945;SDS011;63509;45.250;38.102;2023-12-20T01:07:40;14.60;;;8.00;;
74945;SDS011;63509;45.250;38.102;2023-12-20T01:10:06;16.45;;;8.95;;
74945;SDS011;63509;45.250;38.102;2023-12-20T01:12:33;15.60;;;8.07;;
74945;SDS011;63509;45.250;38.102;2023-12-20T01:14:59;16.73;;;8.25;;
74945;SDS011;63509;45.250;38.102;2023-12-20T01:17:25;15.07;;;7.82;;
74945;SDS011;63509;45.250;38.102;2023-12-20T01:19:51;16.58;;;8.13;;
74945;SDS011;63509;45.250;38.102;2023-12-20T01:22:17;18.13;;;8.73;;
74945;SDS011;63509;45.250;38.102;2023-12-20T01:24:43;16.27;;;8.48;;
74945;SDS011;63509;45.250;38.102;2023-12-20T01:27:09;17.70;;;8.27;;
74945;SDS011;63509;45.250;38.102;2023-12-20T01:29:35;15.75;;;7.75;;
74945;SDS011;63509;45.250;38.102;2023-12-20T01:32:01;13.27;;;7.63;;
74945;SDS011;63509;45.250;38.102;2023-12-20T01:34:27;20.52;;;10.52;;
74945;SDS011;63509;45.250;38.102;2023-12-20T01:36:53;18.70;;;9.40;;
74945;SDS011;63509;45.250;38.102;2023-12-20T01:39:19;14.07;;;8.65;;
74945;SDS011;63509;45.250;38.102;2023-12-20T01:41:45;16.70;;;10.35;;
74945;SDS011;63509;45.250;38.102;2023-12-20T01:44:11;16.83;;;9.07;;
74945;SDS011;63509;45.250;38.102;2023-12-20T01:46:38;16.85;;;9.52;;
74945;SDS011;63509;45.250;38.102;2023-12-20T01:49:04;16.45;;;8.45;;
74945;SDS011;63509;45.250;38.102;2023-12-20T01:51:30;15.98;;;8.57;;
74945;SDS011;63509;45.250;38.102;2023-12-20T01:53:57;20.83;;;9.15;;
74945;SDS011;63509;45.250;38.102;2023-12-20T01:56:24;18.08;;;8.68;;
74945;SDS011;63509;45.250;38.102;2023-12-20T01:58:52;13.52;;;8.13;;
74945;SDS011;63509;45.250;38.102;2023-12-20T02:01:19;14.48;;;8.30;;
74945;SDS011;63509;45.250;38.102;2023-12-20T02:03:45;13.57;;;7.45;;
74945;SDS011;63509;45.250;38.102;2023-12-20T02:06:12;20.73;;;8.20;;
74945;SDS011;63509;45.250;38.102;2023-12-20T02:08:38;16.63;;;8.48;;
74945;SDS011;63509;45.250;38.102;2023-12-20T02:11:04;14.40;;;7.80;;
74945;SDS011;63509;45.250;38.102;2023-12-20T02:13:30;15.07;;;7.78;;
74945;SDS011;63509;45.250;38.102;2023-12-20T02:15:56;13.55;;;8.32;;
74945;SDS011;63509;45.250;38.102;2023-12-20T02:18:22;13.77;;;8.05;;
74945;SDS011;63509;45.250;38.102;2023-12-20T02:20:49;13.43;;;7.68;;
74945;SDS011;63509;45.250;38.102;2023-12-20T02:23:15;24.23;;;8.38;;
74945;SDS011;63509;45.250;38.102;2023-12-20T02:25:41;18.38;;;9.93;;
74945;SDS011;63509;45.250;38.102;2023-12-20T02:28:07;22.77;;;10.13;;
74945;SDS011;63509;45.250;38.102;2023-12-20T02:30:33;17.35;;;9.68;;
74945;SDS011;63509;45.250;38.102;2023-12-20T02:32:59;15.93;;;7.68;;
74945;SDS011;63509;45.250;38.102;2023-12-20T02:35:26;16.30;;;8.55;;
74945;SDS011;63509;45.250;38.102;2023-12-20T02:37:52;13.43;;;6.15;;
74945;SDS011;63509;45.250;38.102;2023-12-20T02:40:18;15.52;;;7.93;;
74945;SDS011;63509;45.250;38.102;2023-12-20T02:42:45;13.02;;;6.32;;
74945;SDS011;63509;45.250;38.102;2023-12-20T02:45:10;12.05;;;6.80;;
74945;SDS011;63509;45.250;38.102;2023-12-20T02:47:36;13.27;;;7.82;;
74945;SDS011;63509;45.250;38.102;2023-12-20T02:50:03;13.02;;;7.35;;
74945;SDS011;63509;45.250;38.102;2023-12-20T02:52:29;12.35;;;7.22;;
74945;SDS011;63509;45.250;38.102;2023-12-20T02:54:55;18.38;;;9.85;;
74945;SDS011;63509;45.250;38.102;2023-12-20T02:57:21;16.85;;;9.15;;
74945;SDS011;63509;45.250;38.102;2023-12-20T02:59:47;13.43;;;7.00;;
74945;SDS011;63509;45.250;38.102;2023-12-20T03:02:13;12.95;;;7.18;;
74945;SDS011;63509;45.250;38.102;2023-12-20T03:04:40;16.63;;;8.07;;
74945;SDS011;63509;45.250;38.102;2023-12-20T03:07:06;17.83;;;9.18;;
74945;SDS011;63509;45.250;38.102;2023-12-20T03:09:32;19.63;;;8.98;;
74945;SDS011;63509;45.250;38.102;2023-12-20T03:11:58;12.95;;;7.22;;
74945;SDS011;63509;45.250;38.102;2023-12-20T03:14:24;13.15;;;7.97;;
74945;SDS011;63509;45.250;38.102;2023-12-20T03:16:50;14.00;;;7.93;;
74945;SDS011;63509;45.250;38.102;2023-12-20T03:19:17;15.02;;;7.70;;
74945;SDS011;63509;45.250;38.102;2023-12-20T03:21:43;17.17;;;7.03;;
74945;SDS011;63509;45.250;38.102;2023-12-20T03:24:09;17.75;;;7.80;;
74945;SDS011;63509;45.250;38.102;2023-12-20T03:26:35;16.38;;;7.13;;
74945;SDS011;63509;45.250;38.102;2023-12-20T03:29:01;11.63;;;5.93;;
74945;SDS011;63509;45.250;38.102;2023-12-20T03:31:27;19.70;;;7.82;;
74945;SDS011;63509;45.250;38.102;2023-12-20T03:33:53;17.70;;;8.55;;
74945;SDS011;63509;45.250;38.102;2023-12-20T03:36:19;18.98;;;9.40;;
74945;SDS011;63509;45.250;38.102;2023-12-20T03:38:46;16.92;;;7.53;;
74945;SDS011;63509;45.250;38.102;2023-12-20T03:41:12;11.63;;;6.82;;
74945;SDS011;63509;45.250;38.102;2023-12-20T03:43:38;13.38;;;6.72;;
74945;SDS011;63509;45.250;38.102;2023-12-20T03:46:04;15.80;;;7.53;;
74945;SDS011;63509;45.250;38.102;2023-12-20T03:48:30;11.85;;;5.95;;
74945;SDS011;63509;45.250;38.102;2023-12-20T03:50:57;14.95;;;5.63;;
74945;SDS011;63509;45.250;38.102;2023-12-20T03:53:23;9.68;;;5.88;;
74945;SDS011;63509;45.250;38.102;2023-12-20T03:55:49;10.68;;;5.95;;
74945;SDS011;63509;45.250;38.102;2023-12-20T03:58:15;13.85;;;5.45;;
74945;SDS011;63509;45.250;38.102;2023-12-20T04:00:41;10.57;;;5.80;;
74945;SDS011;63509;45.250;38.102;2023-12-20T04:03:07;11.52;;;4.80;;
74945;SDS011;63509;45.250;38.102;2023-12-20T04:05:33;13.23;;;4.90;;
74945;SDS011;63509;45.250;38.102;2023-12-20T04:08:02;10.50;;;4.22;;
74945;SDS011;63509;45.250;38.102;2023-12-20T04:10:30;8.40;;;4.30;;
74945;SDS011;63509;45.250;38.102;2023-12-20T04:12:56;14.93;;;4.80;;
74945;SDS011;63509;45.250;38.102;2023-12-20T04:15:22;6.90;;;4.38;;
74945;SDS011;63509;45.250;38.102;2023-12-20T04:17:48;14.13;;;5.88;;
74945;SDS011;63509;45.250;38.102;2023-12-20T04:20:14;12.63;;;6.70;;
74945;SDS011;63509;45.250;38.102;2023-12-20T04:22:40;13.57;;;5.40;;
74945;SDS011;63509;45.250;38.102;2023-12-20T04:25:08;9.65;;;5.07;;
74945;SDS011;63509;45.250;38.102;2023-12-20T04:27:34;9.80;;;5.72;;
74945;SDS011;63509;45.250;38.102;2023-12-20T04:30:00;10.88;;;6.00;;
74945;SDS011;63509;45.250;38.102;2023-12-20T04:32:26;12.88;;;5.85;;
74945;SDS011;63509;45.250;38.102;2023-12-20T04:34:52;11.63;;;5.75;;
74945;SDS011;63509;45.250;38.102;2023-12-20T04:37:18;12.98;;;7.18;;
74945;SDS011;63509;45.250;38.102;2023-12-20T04:39:44;14.93;;;6.65;;
74945;SDS011;63509;45.250;38.102;2023-12-20T04:42:10;11.40;;;6.85;;
74945;SDS011;63509;45.250;38.102;2023-12-20T04:44:36;13.52;;;5.88;;
74945;SDS011;63509;45.250;38.102;2023-12-20T04:47:02;9.23;;;5.75;;
74945;SDS011;63509;45.250;38.102;2023-12-20T04:49:28;12.80;;;7.18;;
74945;SDS011;63509;45.250;38.102;2023-12-20T04:51:54;16.40;;;7.30;;
74945;SDS011;63509;45.250;38.102;2023-12-20T04:54:21;18.83;;;9.88;;
74945;SDS011;63509;45.250;38.102;2023-12-20T04:56:47;13.70;;;8.18;;
74945;SDS011;63509;45.250;38.102;2023-12-20T04:59:13;18.08;;;6.90;;
74945;SDS011;63509;45.250;38.102;2023-12-20T05:01:39;11.23;;;6.38;;
74945;SDS011;63509;45.250;38.102;2023-12-20T05:04:05;11.05;;;6.50;;
74945;SDS011;63509;45.250;38.102;2023-12-20T05:06:31;19.50;;;7.10;;
74945;SDS011;63509;45.250;38.102;2023-12-20T05:08:57;12.38;;;6.00;;
74945;SDS011;63509;45.250;38.102;2023-12-20T05:11:23;7.97;;;5.43;;
74945;SDS011;63509;45.250;38.102;2023-12-20T05:13:49;11.45;;;5.32;;
74945;SDS011;63509;45.250;38.102;2023-12-20T05:16:15;9.75;;;6.10;;
74945;SDS011;63509;45.250;38.102;2023-12-20T05:18:43;14.40;;;6.90;;
74945;SDS011;63509;45.250;38.102;2023-12-20T05:21:10;12.35;;;5.72;;
74945;SDS011;63509;45.250;38.102;2023-12-20T05:23:36;14.77;;;7.63;;
74945;SDS011;63509;45.250;38.102;2023-12-20T05:26:02;9.77;;;6.15;;
74945;SDS011;63509;45.250;38.102;2023-12-20T05:28:28;12.00;;;6.47;;
74945;SDS011;63509;45.250;38.102;2023-12-20T05:30:54;13.43;;;6.70;;
74945;SDS011;63509;45.250;38.102;2023-12-20T05:33:20;19.52;;;7.35;;
74945;SDS011;63509;45.250;38.102;2023-12-20T05:35:47;10.57;;;6.00;;
74945;SDS011;63509;45.250;38.102;2023-12-20T05:38:13;14.70;;;7.80;;
74945;SDS011;63509;45.250;38.102;2023-12-20T05:40:39;17.05;;;7.13;;
74945;SDS011;63509;45.250;38.102;2023-12-20T05:43:05;11.13;;;5.05;;
74945;SDS011;63509;45.250;38.102;2023-12-20T05:45:31;9.95;;;5.68;;
74945;SDS011;63509;45.250;38.102;2023-12-20T05:47:58;7.90;;;4.43;;
74945;SDS011;63509;45.250;38.102;2023-12-20T05:50:24;11.27;;;4.53;;
74945;SDS011;63509;45.250;38.102;2023-12-20T05:52:50;7.15;;;3.95;;
74945;SDS011;63509;45.250;38.102;2023-12-20T05:55:17;5.90;;;3.67;;
74945;SDS011;63509;45.250;38.102;2023-12-20T05:57:43;4.78;;;2.50;;
74945;SDS011;63509;45.250;38.102;2023-12-20T06:00:09;7.13;;;3.00;;
74945;SDS011;63509;45.250;38.102;2023-12-20T06:02:39;5.68;;;2.45;;
74945;SDS011;63509;45.250;38.102;2023-12-20T06:05:05;4.75;;;2.83;;
74945;SDS011;63509;45.250;38.102;2023-12-20T06:07:31;4.72;;;2.47;;
74945;SDS011;63509;45.250;38.102;2023-12-20T06:09:58;6.13;;;2.30;;
74945;SDS011;63509;45.250;38.102;2023-12-20T06:12:24;4.78;;;2.33;;
74945;SDS011;63509;45.250;38.102;2023-12-20T06:14:52;5.15;;;2.08;;
74945;SDS011;63509;45.250;38.102;2023-12-20T06:17:18;3.95;;;2.08;;
74945;SDS011;63509;45.250;38.102;2023-12-20T06:19:44;3.78;;;1.83;;
74945;SDS011;63509;45.250;38.102;2023-12-20T06:22:14;6.63;;;2.92;;
74945;SDS011;63509;45.250;38.102;2023-12-20T06:24:41;5.00;;;2.20;;
74945;SDS011;63509;45.250;38.102;2023-12-20T06:27:07;6.32;;;2.22;;
74945;SDS011;63509;45.250;38.102;2023-12-20T06:29:33;3.47;;;1.67;;
74945;SDS011;63509;45.250;38.102;2023-12-20T06:32:00;4.25;;;1.85;;
74945;SDS011;63509;45.250;38.102;2023-12-20T06:34:26;3.15;;;1.60;;
74945;SDS011;63509;45.250;38.102;2023-12-20T06:36:52;4.07;;;2.00;;
74945;SDS011;63509;45.250;38.102;2023-12-20T06:39:18;6.13;;;2.28;;
74945;SDS011;63509;45.250;38.102;2023-12-20T06:41:44;3.58;;;1.98;;
74945;SDS011;63509;45.250;38.102;2023-12-20T06:44:10;4.85;;;1.83;;
74945;SDS011;63509;45.250;38.102;2023-12-20T06:46:36;7.28;;;1.30;;
74945;SDS011;63509;45.250;38.102;2023-12-20T06:49:02;4.18;;;1.40;;
74945;SDS011;63509;45.250;38.102;2023-12-20T06:51:28;4.07;;;1.30;;
74945;SDS011;63509;45.250;38.102;2023-12-20T06:53:56;4.18;;;2.17;;
74945;SDS011;63509;45.250;38.102;2023-12-20T06:56:22;4.15;;;1.45;;
74945;SDS011;63509;45.250;38.102;2023-12-20T06:58:48;2.88;;;1.33;;
74945;SDS011;63509;45.250;38.102;2023-12-20T07:01:14;3.95;;;1.98;;
74945;SDS011;63509;45.250;38.102;2023-12-20T07:03:41;3.35;;;1.73;;
74945;SDS011;63509;45.250;38.102;2023-12-20T07:06:08;5.10;;;1.60;;
74945;SDS011;63509;45.250;38.102;2023-12-20T07:08:34;5.40;;;1.67;;
74945;SDS011;63509;45.250;38.102;2023-12-20T07:11:00;2.33;;;1.17;;
74945;SDS011;63509;45.250;38.102;2023-12-20T07:13:26;5.32;;;1.48;;
74945;SDS011;63509;45.250;38.102;2023-12-20T07:15:52;3.45;;;1.20;;
74945;SDS011;63509;45.250;38.102;2023-12-20T07:18:18;5.15;;;2.50;;
74945;SDS011;63509;45.250;38.102;2023-12-20T07:20:44;2.50;;;1.20;;
74945;SDS011;63509;45.250;38.102;2023-12-20T07:23:10;5.47;;;1.33;;
74945;SDS011;63509;45.250;38.102;2023-12-20T07:25:36;7.18;;;1.52;;
74945;SDS011;63509;45.250;38.102;2023-12-20T07:28:02;8.60;;;1.38;;
74945;SDS011;63509;45.250;38.102;2023-12-20T07:30:29;7.65;;;1.27;;
74945;SDS011;63509;45.250;38.102;2023-12-20T07:32:56;11.13;;;1.77;;
74945;SDS011;63509;45.250;38.102;2023-12-20T07:35:25;3.80;;;0.93;;
74945;SDS011;63509;45.250;38.102;2023-12-20T07:37:51;6.10;;;1.25;;
74945;SDS011;63509;45.250;38.102;2023-12-20T07:40:17;7.07;;;1.20;;
74945;SDS011;63509;45.250;38.102;2023-12-20T07:42:43;2.35;;;0.90;;
74945;SDS011;63509;45.250;38.102;2023-12-20T07:45:09;13.63;;;1.20;;
74945;SDS011;63509;45.250;38.102;2023-12-20T07:47:38;5.32;;;1.33;;
74945;SDS011;63509;45.250;38.102;2023-12-20T07:50:06;5.50;;;1.10;;
74945;SDS011;63509;45.250;38.102;2023-12-20T07:52:32;2.20;;;1.33;;
74945;SDS011;63509;45.250;38.102;2023-12-20T07:54:58;8.23;;;1.40;;
74945;SDS011;63509;45.250;38.102;2023-12-20T07:57:24;21.67;;;1.88;;
74945;SDS011;63509;45.250;38.102;2023-12-20T07:59:50;21.02;;;3.08;;
74945;SDS011;63509;45.250;38.102;2023-12-20T08:02:16;6.45;;;1.17;;
74945;SDS011;63509;45.250;38.102;2023-12-20T08:04:42;6.22;;;1.38;;
74945;SDS011;63509;45.250;38.102;2023-12-20T08:07:08;2.92;;;1.23;;
74945;SDS011;63509;45.250;38.102;2023-12-20T08:09:34;20.35;;;1.85;;
74945;SDS011;63509;45.250;38.102;2023-12-20T08:12:02;5.97;;;0.90;;
74945;SDS011;63509;45.250;38.102;2023-12-20T08:14:28;9.10;;;1.50;;
74945;SDS011;63509;45.250;38.102;2023-12-20T08:16:55;18.60;;;2.40;;
74945;SDS011;63509;45.250;38.102;2023-12-20T08:19:21;28.55;;;2.22;;
74945;SDS011;63509;45.250;38.102;2023-12-20T08:21:47;6.95;;;1.40;;
74945;SDS011;63509;45.250;38.102;2023-12-20T08:24:13;16.58;;;2.03;;
74945;SDS011;63509;45.250;38.102;2023-12-20T08:26:39;4.03;;;0.75;;
74945;SDS011;63509;45.250;38.102;2023-12-20T08:29:05;32.13;;;2.70;;
74945;SDS011;63509;45.250;38.102;2023-12-20T08:31:32;10.65;;;1.42;;
74945;SDS011;63509;45.250;38.102;2023-12-20T08:33:58;10.82;;;1.52;;
74945;SDS011;63509;45.250;38.102;2023-12-20T08:36:24;14.38;;;1.60;;
74945;SDS011;63509;45.250;38.102;2023-12-20T08:38:50;16.42;;;2.00;;
74945;SDS011;63509;45.250;38.102;2023-12-20T08:41:17;13.95;;;2.42;;
74945;SDS011;63509;45.250;38.102;2023-12-20T08:43:43;14.15;;;1.88;;
74945;SDS011;63509;45.250;38.102;2023-12-20T08:46:09;16.48;;;2.25;;
74945;SDS011;63509;45.250;38.102;2023-12-20T08:48:35;23.58;;;2.13;;
74945;SDS011;63509;45.250;38.102;2023-12-20T08:51:02;19.90;;;1.42;;
74945;SDS011;63509;45.250;38.102;2023-12-20T08:53:29;16.27;;;1.83;;
74945;SDS011;63509;45.250;38.102;2023-12-20T08:55:55;10.30;;;1.73;;
74945;SDS011;63509;45.250;38.102;2023-12-20T08:58:26;15.02;;;1.45;;
74945;SDS011;63509;45.250;38.102;2023-12-20T09:00:53;10.82;;;1.83;;
74945;SDS011;63509;45.250;38.102;2023-12-20T09:03:19;11.90;;;2.25;;
74945;SDS011;63509;45.250;38.102;2023-12-20T09:05:45;19.15;;;2.10;;
74945;SDS011;63509;45.250;38.102;2023-12-20T09:08:11;15.30;;;1.67;;
74945;SDS011;63509;45.250;38.102;2023-12-20T09:10:37;16.25;;;2.08;;
74945;SDS011;63509;45.250;38.102;2023-12-20T09:13:03;18.83;;;2.40;;
74945;SDS011;63509;45.250;38.102;2023-12-20T09:15:29;11.23;;;2.08;;
74945;SDS011;63509;45.250;38.102;2023-12-20T09:17:55;6.82;;;1.77;;
74945;SDS011;63509;45.250;38.102;2023-12-20T09:20:21;5.50;;;1.35;;
74945;SDS011;63509;45.250;38.102;2023-12-20T09:22:49;10.25;;;1.50;;
74945;SDS011;63509;45.250;38.102;2023-12-20T09:25:15;19.42;;;2.08;;
74945;SDS011;63509;45.250;38.102;2023-12-20T09:27:43;14.50;;;2.08;;
74945;SDS011;63509;45.250;38.102;2023-12-20T09:30:09;13.63;;;1.65;;
74945;SDS011;63509;45.250;38.102;2023-12-20T09:32:35;10.63;;;1.52;;
74945;SDS011;63509;45.250;38.102;2023-12-20T09:35:02;6.47;;;1.50;;
74945;SDS011;63509;45.250;38.102;2023-12-20T09:37:30;5.38;;;1.35;;
74945;SDS011;63509;45.250;38.102;2023-12-20T09:39:56;7.85;;;1.17;;
74945;SDS011;63509;45.250;38.102;2023-12-20T09:43:08;15.30;;;1.40;;
74945;SDS011;63509;45.250;38.102;2023-12-20T09:45:15;19.80;;;2.20;;
74945;SDS011;63509;45.250;38.102;2023-12-20T09:47:47;10.27;;;1.55;;
74945;SDS011;63509;45.250;38.102;2023-12-20T09:50:15;23.70;;;2.25;;
74945;SDS011;63509;45.250;38.102;2023-12-20T09:52:43;41.22;;;3.03;;
74945;SDS011;63509;45.250;38.102;2023-12-20T09:55:15;10.43;;;1.77;;
74945;SDS011;63509;45.250;38.102;2023-12-20T09:57:42;14.40;;;1.90;;
74945;SDS011;63509;45.250;38.102;2023-12-20T10:00:09;5.68;;;1.38;;
74945;SDS011;63509;45.250;38.102;2023-12-20T10:02:39;14.07;;;1.60;;
74945;SDS011;63509;45.250;38.102;2023-12-20T10:05:10;13.82;;;1.58;;
74945;SDS011;63509;45.250;38.102;2023-12-20T10:07:44;7.20;;;1.45;;
74945;SDS011;63509;45.250;38.102;2023-12-20T10:10:12;10.18;;;1.33;;
74945;SDS011;63509;45.250;38.102;2023-12-20T10:12:39;5.00;;;1.00;;
74945;SDS011;63509;45.250;38.102;2023-12-20T10:15:05;18.70;;;1.85;;
74945;SDS011;63509;45.250;38.102;2023-12-20T10:17:32;5.18;;;1.20;;
74945;SDS011;63509;45.250;38.102;2023-12-20T10:19:58;9.07;;;1.40;;
74945;SDS011;63509;45.250;38.102;2023-12-20T10:22:24;13.68;;;2.22;;
74945;SDS011;63509;45.250;38.102;2023-12-20T10:24:50;8.95;;;1.45;;
74945;SDS011;63509;45.250;38.102;2023-12-20T10:27:16;5.90;;;1.63;;
74945;SDS011;63509;45.250;38.102;2023-12-20T10:29:45;17.95;;;2.40;;
74945;SDS011;63509;45.250;38.102;2023-12-20T10:32:29;19.95;;;2.00;;
74945;SDS011;63509;45.250;38.102;2023-12-20T10:34:55;17.33;;;2.72;;
74945;SDS011;63509;45.250;38.102;2023-12-20T10:37:22;9.02;;;1.20;;
74945;SDS011;63509;45.250;38.102;2023-12-20T10:39:52;16.75;;;2.45;;
74945;SDS011;63509;45.250;38.102;2023-12-20T10:42:22;12.55;;;2.15;;
74945;SDS011;63509;45.250;38.102;2023-12-20T10:44:51;7.55;;;1.60;;
74945;SDS011;63509;45.250;38.102;2023-12-20T10:47:22;24.63;;;2.20;;
74945;SDS011;63509;45.250;38.102;2023-12-20T10:49:50;23.38;;;2.50;;
74945;SDS011;63509;45.250;38.102;2023-12-20T10:52:18;10.40;;;1.77;;
74945;SDS011;63509;45.250;38.102;2023-12-20T10:54:46;22.38;;;1.45;;
74945;SDS011;63509;45.250;38.102;2023-12-20T10:57:12;16.17;;;2.17;;
74945;SDS011;63509;45.250;38.102;2023-12-20T10:59:39;2.70;;;1.35;;
74945;SDS011;63509;45.250;38.102;2023-12-20T11:02:05;10.60;;;1.73;;
74945;SDS011;63509;45.250;38.102;2023-12-20T11:10:22;9.00;;;1.13;;
74945;SDS011;63509;45.250;38.102;2023-12-20T11:12:53;2.17;;;1.08;;
74945;SDS011;63509;45.250;38.102;2023-12-20T11:15:24;9.75;;;1.35;;
74945;SDS011;63509;45.250;38.102;2023-12-20T11:17:56;4.28;;;1.38;;
74945;SDS011;63509;45.250;38.102;2023-12-20T11:20:38;18.10;;;1.98;;
74945;SDS011;63509;45.250;38.102;2023-12-20T11:23:06;3.03;;;0.95;;
74945;SDS011;63509;45.250;38.102;2023-12-20T11:25:49;13.90;;;1.48;;
74945;SDS011;63509;45.250;38.102;2023-12-20T11:28:22;17.00;;;2.13;;
74945;SDS011;63509;45.250;38.102;2023-12-20T11:30:52;12.52;;;1.75;;
74945;SDS011;63509;45.250;38.102;2023-12-20T11:33:23;18.50;;;1.95;;
74945;SDS011;63509;45.250;38.102;2023-12-20T11:35:50;4.38;;;1.45;;
74945;SDS011;63509;45.250;38.102;2023-12-20T11:38:19;14.55;;;1.05;;
74945;SDS011;63509;45.250;38.102;2023-12-20T11:40:48;5.53;;;2.03;;
74945;SDS011;63509;45.250;38.102;2023-12-20T11:46:18;11.73;;;1.88;;
74945;SDS011;63509;45.250;38.102;2023-12-20T11:48:45;13.55;;;2.47;;
74945;SDS011;63509;45.250;38.102;2023-12-20T11:51:13;16.13;;;1.45;;
74945;SDS011;63509;45.250;38.102;2023-12-20T11:53:40;21.17;;;1.67;;
74945;SDS011;63509;45.250;38.102;2023-12-20T11:56:08;13.35;;;2.10;;
74945;SDS011;63509;45.250;38.102;2023-12-20T11:58:35;17.48;;;1.83;;
74945;SDS011;63509;45.250;38.102;2023-12-20T12:01:01;12.13;;;2.00;;
74945;SDS011;63509;45.250;38.102;2023-12-20T12:03:28;9.40;;;1.65;;
74945;SDS011;63509;45.250;38.102;2023-12-20T12:05:54;17.77;;;1.48;;
74945;SDS011;63509;45.250;38.102;2023-12-20T12:08:20;8.23;;;1.70;;
74945;SDS011;63509;45.250;38.102;2023-12-20T12:10:46;10.18;;;1.63;;
74945;SDS011;63509;45.250;38.102;2023-12-20T12:13:12;11.48;;;1.58;;
74945;SDS011;63509;45.250;38.102;2023-12-20T12:15:40;11.43;;;1.52;;
74945;SDS011;63509;45.250;38.102;2023-12-20T12:18:07;8.32;;;1.50;;
74945;SDS011;63509;45.250;38.102;2023-12-20T12:20:34;14.85;;;1.20;;
74945;SDS011;63509;45.250;38.102;2023-12-20T12:23:01;1.40;;;0.60;;
74945;SDS011;63509;45.250;38.102;2023-12-20T12:25:28;15.30;;;1.92;;
74945;SDS011;63509;45.250;38.102;2023-12-20T12:27:56;25.55;;;2.58;;
74945;SDS011;63509;45.250;38.102;2023-12-20T12:30:24;15.57;;;1.98;;
74945;SDS011;63509;45.250;38.102;2023-12-20T12:32:50;19.65;;;1.55;;
74945;SDS011;63509;45.250;38.102;2023-12-20T12:35:18;1.63;;;0.90;;
74945;SDS011;63509;45.250;38.102;2023-12-20T12:37:44;1.27;;;0.60;;
74945;SDS011;63509;45.250;38.102;2023-12-20T12:40:11;8.65;;;1.27;;
74945;SDS011;63509;45.250;38.102;2023-12-20T12:42:39;6.88;;;1.60;;
74945;SDS011;63509;45.250;38.102;2023-12-20T12:45:06;6.60;;;1.25;;
74945;SDS011;63509;45.250;38.102;2023-12-20T12:47:33;5.13;;;1.00;;
74945;SDS011;63509;45.250;38.102;2023-12-20T12:50:00;11.88;;;1.50;;
74945;SDS011;63509;45.250;38.102;2023-12-20T12:52:26;9.27;;;1.58;;
74945;SDS011;63509;45.250;38.102;2023-12-20T12:54:52;6.40;;;1.48;;
74945;SDS011;63509;45.250;38.102;2023-12-20T12:57:19;5.47;;;2.42;;
74945;SDS011;63509;45.250;38.102;2023-12-20T12:59:45;21.27;;;1.48;;
74945;SDS011;63509;45.250;38.102;2023-12-20T13:02:12;8.88;;;1.50;;
74945;SDS011;63509;45.250;38.102;2023-12-20T13:04:39;28.88;;;3.35;;
74945;SDS011;63509;45.250;38.102;2023-12-20T13:07:09;9.80;;;1.45;;
74945;SDS011;63509;45.250;38.102;2023-12-20T13:09:38;5.03;;;0.98;;
74945;SDS011;63509;45.250;38.102;2023-12-20T13:12:06;4.60;;;1.60;;
74945;SDS011;63509;45.250;38.102;2023-12-20T13:14:33;8.57;;;1.17;;
74945;SDS011;63509;45.250;38.102;2023-12-20T13:17:03;13.82;;;2.30;;
74945;SDS011;63509;45.250;38.102;2023-12-20T13:19:29;6.60;;;1.60;;
74945;SDS011;63509;45.250;38.102;2023-12-20T13:21:56;18.80;;;2.05;;
74945;SDS011;63509;45.250;38.102;2023-12-20T13:24:23;12.63;;;2.38;;
74945;SDS011;63509;45.250;38.102;2023-12-20T13:26:49;3.55;;;1.48;;
74945;SDS011;63509;45.250;38.102;2023-12-20T13:29:17;19.65;;;1.67;;
74945;SDS011;63509;45.250;38.102;2023-12-20T13:31:43;5.18;;;1.48;;
74945;SDS011;63509;45.250;38.102;2023-12-20T13:34:09;7.05;;;1.27;;
74945;SDS011;63509;45.250;38.102;2023-12-20T13:36:35;13.52;;;1.60;;
74945;SDS011;63509;45.250;38.102;2023-12-20T13:39:02;8.80;;;1.50;;
74945;SDS011;63509;45.250;38.102;2023-12-20T13:43:56;22.75;;;2.10;;
74945;SDS011;63509;45.250;38.102;2023-12-20T13:46:22;13.00;;;3.03;;
74945;SDS011;63509;45.250;38.102;2023-12-20T13:48:49;5.28;;;1.98;;
74945;SDS011;63509;45.250;38.102;2023-12-20T13:51:15;20.70;;;3.83;;
74945;SDS011;63509;45.250;38.102;2023-12-20T13:53:41;19.48;;;5.35;;
74945;SDS011;63509;45.250;38.102;2023-12-20T13:56:07;22.33;;;3.45;;
74945;SDS011;63509;45.250;38.102;2023-12-20T13:58:34;29.35;;;3.35;;
74945;SDS011;63509;45.250;38.102;2023-12-20T14:01:00;21.88;;;2.15;;
74945;SDS011;63509;45.250;38.102;2023-12-20T14:03:26;35.05;;;4.38;;
74945;SDS011;63509;45.250;38.102;2023-12-20T14:05:52;33.08;;;2.00;;
74945;SDS011;63509;45.250;38.102;2023-12-20T14:08:18;26.95;;;2.92;;
74945;SDS011;63509;45.250;38.102;2023-12-20T14:10:44;25.65;;;3.13;;
74945;SDS011;63509;45.250;38.102;2023-12-20T14:13:10;20.85;;;2.88;;
74945;SDS011;63509;45.250;38.102;2023-12-20T14:15:37;21.02;;;3.28;;
74945;SDS011;63509;45.250;38.102;2023-12-20T14:18:06;43.60;;;4.05;;
74945;SDS011;63509;45.250;38.102;2023-12-20T14:20:35;19.88;;;2.85;;
74945;SDS011;63509;45.250;38.102;2023-12-20T14:23:02;16.63;;;2.72;;
74945;SDS011;63509;45.250;38.102;2023-12-20T14:25:29;24.70;;;2.65;;
74945;SDS011;63509;45.250;38.102;2023-12-20T14:27:56;18.70;;;2.78;;
74945;SDS011;63509;45.250;38.102;2023-12-20T14:30:23;19.00;;;4.30;;
74945;SDS011;63509;45.250;38.102;2023-12-20T14:32:49;18.77;;;4.65;;
74945;SDS011;63509;45.250;38.102;2023-12-20T14:35:15;24.67;;;4.07;;